SCIE/CCP METAR and TAF weather

Enter ICAO airport designator
Station Type Date Time Source
SCIE METAR 2020/09/24 10:00 UTC NOAA

SCIE 241000Z AUTO 20005KT 9999 NCD 06/05 Q1015


Station Type Date Time Source
SCIE Decoded METAR 2020/09/24 10:00 UTC NOAA

Concepcion, Chile (SCIE) 36-46S 073-03W
Sep 24, 2020 - 06:00 AM EDT / 2020.09.24 1000 UTC
Wind: from the SSW (200 degrees) at 6 MPH (5 KT):0
Visibility: greater than 7 mile(s):0
Temperature: 42 F (6 C)
Dew Point: 41 F (5 C)
Relative Humidity: 93%
Pressure (altimeter): 29.97 in. Hg (1015 hPa)
ob: SCIE 241000Z AUTO 20005KT 9999 NCD 06/05 Q1015
cycle: 10

Station Type Date Time Source
SCIE TAF 2020/09/24 09:18 UTC NOAA

TAF
AMD SCIE 240910Z 2409/2506 20004KT 2000 BR BKN006 TX15/2419Z TN08/2410Z
TEMPO 2406/2412 VRB02KT 0800 FG OVC003
BECMG 2413/2415 9999 FEW008
BECMG 2413/2415 23010KT CAVOK
BECMG 2500/2502 02004KT

Example: see airport list